Time;durP1;ratioP1;P1;durP2;ratioP2;P2;SDS_P1;SDS_P2;PMS_P1;PMS_P2;Temp;Humidity;BMP_temperature;BMP_pressure;BME280_temperature;BME280_humidity;BME280_pressure;Samples;Min_cycle;Max_cycle;Signal;HPM_P1;HPM_P2
2022/01/01 00:00:41;;;;;;;9.45;7.75;;;;;;;;;;5045503;28;20234;-75
2022/01/01 00:03:09;;;;;;;10.90;9.57;;;;;;;;;;5051276;28;20202;-75
2022/01/01 00:05:36;;;;;;;14.32;9.45;;;;;;;;;;5049621;28;20582;-76
2022/01/01 00:08:05;;;;;;;9.88;8.88;;;;;;;;;;5049466;28;20202;-75
2022/01/01 00:10:34;;;;;;;13.25;10.23;;;;;;;;;;5051640;28;20605;-75
2022/01/01 00:13:03;;;;;;;10.85;8.95;;;;;;;;;;5053222;28;20198;-75
2022/01/01 00:15:30;;;;;;;9.80;8.80;;;;;;;;;;5043829;28;20191;-75
2022/01/01 00:17:57;;;;;;;10.38;9.38;;;;;;;;;;5042830;28;20218;-75
2022/01/01 00:20:25;;;;;;;12.68;9.35;;;;;;;;;;5049889;28;20203;-75
2022/01/01 00:22:52;;;;;;;17.88;10.38;;;;;;;;;;5047595;28;20539;-75
2022/01/01 00:25:19;;;;;;;13.60;11.20;;;;;;;;;;5048637;28;20574;-75
2022/01/01 00:27:50;;;;;;;13.98;11.27;;;;;;;;;;5049851;28;20210;-75
2022/01/01 00:30:19;;;;;;;11.57;10.38;;;;;;;;;;5046688;28;20294;-74
2022/01/01 00:32:46;;;;;;;14.45;10.52;;;;;;;;;;5048909;28;20203;-74
2022/01/01 00:35:13;;;;;;;13.07;11.75;;;;;;;;;;5053474;28;20207;-75
2022/01/01 00:37:40;;;;;;;17.30;12.00;;;;;;;;;;5055737;28;20222;-76
2022/01/01 00:40:08;;;;;;;13.88;10.38;;;;;;;;;;5060372;28;20210;-76
2022/01/01 00:42:35;;;;;;;14.88;11.38;;;;;;;;;;5056474;28;20202;-76
2022/01/01 00:45:02;;;;;;;16.13;12.45;;;;;;;;;;5045275;28;20203;-75
2022/01/01 00:47:30;;;;;;;16.83;12.70;;;;;;;;;;5044042;28;20199;-76
2022/01/01 00:49:57;;;;;;;15.85;12.77;;;;;;;;;;5053665;28;20202;-76
2022/01/01 00:52:24;;;;;;;16.88;14.50;;;;;;;;;;5052532;28;20199;-76
2022/01/01 00:54:51;;;;;;;20.45;13.60;;;;;;;;;;5054475;28;20203;-75
2022/01/01 00:57:19;;;;;;;14.68;12.32;;;;;;;;;;5059373;28;20218;-77
2022/01/01 00:59:46;;;;;;;14.93;13.25;;;;;;;;;;5049201;28;20219;-76
2022/01/01 01:02:13;;;;;;;13.98;12.18;;;;;;;;;;5060420;28;20194;-76
2022/01/01 01:04:42;;;;;;;17.08;12.77;;;;;;;;;;5042218;28;20268;-73
2022/01/01 01:07:12;;;;;;;16.35;12.98;;;;;;;;;;5051648;28;20195;-75
2022/01/01 01:09:39;;;;;;;17.58;14.30;;;;;;;;;;5049952;28;20198;-73
2022/01/01 01:12:06;;;;;;;16.30;13.43;;;;;;;;;;5051641;28;20201;-73
2022/01/01 01:14:40;;;;;;;16.10;12.95;;;;;;;;;;5050447;28;20202;-73
2022/01/01 01:17:07;;;;;;;17.00;14.50;;;;;;;;;;5049796;28;20378;-74
2022/01/01 01:19:34;;;;;;;16.52;13.85;;;;;;;;;;5051130;28;20309;-74
2022/01/01 01:22:02;;;;;;;15.73;12.95;;;;;;;;;;5051903;28;20666;-74
2022/01/01 01:24:29;;;;;;;12.80;10.88;;;;;;;;;;5047285;28;20195;-74
2022/01/01 01:27:01;;;;;;;13.30;11.88;;;;;;;;;;5050933;28;20288;-74
2022/01/01 01:29:29;;;;;;;16.08;13.32;;;;;;;;;;5050188;28;20723;-73
2022/01/01 01:31:56;;;;;;;16.83;12.82;;;;;;;;;;5049640;28;20212;-73
2022/01/01 01:34:23;;;;;;;13.98;12.48;;;;;;;;;;5051072;28;20190;-74
2022/01/01 01:36:50;;;;;;;22.10;14.10;;;;;;;;;;5050540;28;20207;-73
2022/01/01 01:39:19;;;;;;;19.73;11.90;;;;;;;;;;5051120;28;20206;-73
2022/01/01 01:41:46;;;;;;;14.10;12.60;;;;;;;;;;5048844;28;20199;-74
2022/01/01 01:44:29;;;;;;;18.17;14.05;;;;;;;;;;5048344;28;20658;-74
2022/01/01 01:46:56;;;;;;;13.57;12.10;;;;;;;;;;5043327;28;20234;-74
2022/01/01 01:49:23;;;;;;;17.70;12.30;;;;;;;;;;5048953;28;20289;-74
2022/01/01 01:51:50;;;;;;;19.58;12.48;;;;;;;;;;5048967;28;20222;-74
2022/01/01 01:54:19;;;;;;;16.65;13.65;;;;;;;;;;5049270;28;20205;-73
2022/01/01 01:56:47;;;;;;;17.63;12.50;;;;;;;;;;5050278;28;20620;-73
2022/01/01 01:59:14;;;;;;;20.25;14.70;;;;;;;;;;5048772;28;20203;-72
2022/01/01 02:01:41;;;;;;;13.05;11.65;;;;;;;;;;5049026;28;20665;-73
2022/01/01 02:04:09;;;;;;;14.05;11.10;;;;;;;;;;5050879;28;20198;-73
2022/01/01 02:06:36;;;;;;;15.38;11.82;;;;;;;;;;5051058;28;20682;-73
2022/01/01 02:09:04;;;;;;;16.20;11.70;;;;;;;;;;5049339;28;20194;-73
2022/01/01 02:11:33;;;;;;;15.70;11.20;;;;;;;;;;5038734;28;20329;-73
2022/01/01 02:17:08;;;;;;;14.45;10.52;;;;;;;;;;5041111;28;20289;-72
2022/01/01 02:19:46;;;;;;;12.27;11.00;;;;;;;;;;5046036;28;20528;-73
2022/01/01 02:22:14;;;;;;;15.98;10.63;;;;;;;;;;5050286;28;20617;-74
2022/01/01 02:24:41;;;;;;;14.85;11.07;;;;;;;;;;5035529;28;20290;-73
2022/01/01 02:27:09;;;;;;;13.80;10.45;;;;;;;;;;5042489;28;20199;-74
2022/01/01 02:29:37;;;;;;;16.08;10.35;;;;;;;;;;5048971;28;20230;-73
2022/01/01 02:32:05;;;;;;;17.17;10.52;;;;;;;;;;5042090;28;20199;-73
2022/01/01 02:34:32;;;;;;;16.33;11.10;;;;;;;;;;5050220;28;20701;-74
2022/01/01 02:36:59;;;;;;;13.00;10.77;;;;;;;;;;5050374;28;20221;-73
2022/01/01 02:39:27;;;;;;;15.48;10.27;;;;;;;;;;5049305;28;20191;-73
2022/01/01 02:41:56;;;;;;;15.40;11.13;;;;;;;;;;5044672;28;20202;-73
2022/01/01 02:44:23;;;;;;;14.43;11.00;;;;;;;;;;5050054;28;20213;-73
2022/01/01 02:46:52;;;;;;;16.42;11.95;;;;;;;;;;5048210;28;20666;-73
2022/01/01 02:49:20;;;;;;;16.60;10.98;;;;;;;;;;5050144;28;20649;-73
2022/01/01 02:51:47;;;;;;;13.23;10.70;;;;;;;;;;5048998;28;20211;-73
2022/01/01 02:54:14;;;;;;;20.60;11.23;;;;;;;;;;5046271;28;20207;-73
2022/01/01 02:56:42;;;;;;;13.50;10.15;;;;;;;;;;5050537;28;20203;-73
2022/01/01 02:59:09;;;;;;;15.48;11.20;;;;;;;;;;5049331;28;20692;-73
2022/01/01 03:01:36;;;;;;;15.73;10.88;;;;;;;;;;5041146;28;20208;-73
2022/01/01 03:04:03;;;;;;;10.82;9.57;;;;;;;;;;5048692;28;20207;-74
2022/01/01 03:06:30;;;;;;;13.07;8.95;;;;;;;;;;5050158;28;20202;-73
2022/01/01 03:08:57;;;;;;;13.48;10.48;;;;;;;;;;5050270;28;20218;-73
2022/01/01 03:11:25;;;;;;;11.35;8.70;;;;;;;;;;5042265;28;20205;-73
2022/01/01 03:13:53;;;;;;;17.35;10.70;;;;;;;;;;5048802;28;20206;-73
2022/01/01 03:16:20;;;;;;;10.18;8.45;;;;;;;;;;5040117;28;20606;-73
2022/01/01 03:18:47;;;;;;;12.98;9.07;;;;;;;;;;5049633;28;20226;-73
2022/01/01 03:21:14;;;;;;;11.15;9.27;;;;;;;;;;5050154;28;20214;-73
2022/01/01 03:23:41;;;;;;;10.80;8.50;;;;;;;;;;5043967;28;20195;-73
2022/01/01 03:26:08;;;;;;;10.55;7.97;;;;;;;;;;5048132;28;20217;-73
2022/01/01 03:28:35;;;;;;;11.95;8.65;;;;;;;;;;5040713;28;20563;-73
2022/01/01 03:31:04;;;;;;;12.77;9.40;;;;;;;;;;5046372;28;20229;-73
2022/01/01 03:33:31;;;;;;;12.85;9.23;;;;;;;;;;5049279;28;20199;-73
2022/01/01 03:35:58;;;;;;;14.73;8.27;;;;;;;;;;5050395;28;20199;-73
2022/01/01 03:38:25;;;;;;;11.80;7.90;;;;;;;;;;5050133;28;20223;-73
2022/01/01 03:40:52;;;;;;;12.48;8.23;;;;;;;;;;5047824;28;20206;-73
2022/01/01 03:43:19;;;;;;;10.15;8.25;;;;;;;;;;5038584;28;20689;-73
2022/01/01 03:45:46;;;;;;;11.93;9.00;;;;;;;;;;5050884;28;20658;-73
2022/01/01 03:48:15;;;;;;;11.82;9.02;;;;;;;;;;5053641;28;20654;-73
2022/01/01 03:50:42;;;;;;;9.93;8.93;;;;;;;;;;5033790;28;20203;-71
2022/01/01 03:53:09;;;;;;;12.43;8.05;;;;;;;;;;5034025;28;20203;-72
2022/01/01 03:55:36;;;;;;;16.40;8.43;;;;;;;;;;5040442;28;20202;-71
2022/01/01 03:58:03;;;;;;;11.65;8.60;;;;;;;;;;5051560;28;20215;-71
2022/01/01 04:00:30;;;;;;;15.95;9.32;;;;;;;;;;5050362;28;20215;-71
2022/01/01 04:03:06;;;;;;;11.55;8.40;;;;;;;;;;5051439;28;20705;-70
2022/01/01 04:05:34;;;;;;;16.90;9.45;;;;;;;;;;5053001;28;20658;-71
2022/01/01 04:08:02;;;;;;;12.45;8.05;;;;;;;;;;5053539;28;20742;-71
2022/01/01 04:10:31;;;;;;;12.95;8.32;;;;;;;;;;5050093;28;20669;-72
2022/01/01 04:12:58;;;;;;;9.57;8.57;;;;;;;;;;5045752;28;20294;-72
2022/01/01 04:15:25;;;;;;;16.70;8.65;;;;;;;;;;5049575;28;20203;-72
2022/01/01 04:17:57;;;;;;;10.38;8.23;;;;;;;;;;5040000;28;20211;-72
2022/01/01 04:20:24;;;;;;;12.75;8.52;;;;;;;;;;5049747;28;20426;-72
2022/01/01 04:22:52;;;;;;;10.60;8.25;;;;;;;;;;5047831;28;20207;-71
2022/01/01 04:25:20;;;;;;;10.77;8.85;;;;;;;;;;5047795;28;20666;-71
2022/01/01 04:27:47;;;;;;;10.50;8.20;;;;;;;;;;5050629;28;20566;-71
2022/01/01 04:30:14;;;;;;;11.20;8.05;;;;;;;;;;5052138;28;20203;-72
2022/01/01 04:32:43;;;;;;;11.98;7.60;;;;;;;;;;5050188;28;20558;-72
2022/01/01 04:35:10;;;;;;;11.15;8.40;;;;;;;;;;5052502;28;20198;-70
2022/01/01 04:37:38;;;;;;;10.85;7.40;;;;;;;;;;5052128;28;20195;-72
2022/01/01 04:40:07;;;;;;;13.23;8.05;;;;;;;;;;5048826;28;20654;-71
2022/01/01 04:42:34;;;;;;;13.30;9.10;;;;;;;;;;5049418;28;20606;-71
2022/01/01 04:45:01;;;;;;;11.23;7.45;;;;;;;;;;5051329;28;20681;-72
2022/01/01 04:47:28;;;;;;;11.90;8.25;;;;;;;;;;5049249;28;20205;-70
2022/01/01 04:49:55;;;;;;;10.82;8.75;;;;;;;;;;5038886;28;20195;-71
2022/01/01 04:52:22;;;;;;;10.98;7.40;;;;;;;;;;5051137;28;20218;-72
2022/01/01 04:54:50;;;;;;;11.30;9.00;;;;;;;;;;5047404;28;20203;-71
2022/01/01 04:57:18;;;;;;;11.50;8.43;;;;;;;;;;5049806;28;20206;-71
2022/01/01 04:59:45;;;;;;;12.30;11.00;;;;;;;;;;5050739;28;20694;-70
2022/01/01 05:02:12;;;;;;;13.68;8.88;;;;;;;;;;5049970;28;20203;-70
2022/01/01 05:04:40;;;;;;;12.25;7.00;;;;;;;;;;5051288;28;20206;-70
2022/01/01 05:07:07;;;;;;;12.95;6.60;;;;;;;;;;5051738;28;20191;-71
2022/01/01 05:09:34;;;;;;;14.55;7.80;;;;;;;;;;5038413;28;20200;-70
2022/01/01 05:12:01;;;;;;;7.88;7.13;;;;;;;;;;5037729;28;20202;-70
2022/01/01 05:14:31;;;;;;;8.30;7.50;;;;;;;;;;5051411;28;20198;-71
2022/01/01 05:16:58;;;;;;;10.13;7.60;;;;;;;;;;5040271;28;20204;-71
2022/01/01 05:19:25;;;;;;;7.78;6.88;;;;;;;;;;5048742;28;20218;-71
2022/01/01 05:21:55;;;;;;;7.53;6.72;;;;;;;;;;5050691;28;20236;-70
2022/01/01 05:24:22;;;;;;;12.77;7.78;;;;;;;;;;5041887;28;20222;-70
2022/01/01 05:26:49;;;;;;;9.32;7.00;;;;;;;;;;5046657;28;20210;-72
2022/01/01 05:29:16;;;;;;;12.57;7.80;;;;;;;;;;5049519;28;20199;-71
2022/01/01 05:31:45;;;;;;;9.95;7.80;;;;;;;;;;5036409;28;20280;-72
2022/01/01 05:34:12;;;;;;;8.77;6.90;;;;;;;;;;5046861;28;20198;-70
2022/01/01 05:36:39;;;;;;;9.15;7.47;;;;;;;;;;5051265;28;20217;-70
2022/01/01 05:39:06;;;;;;;11.68;7.80;;;;;;;;;;5050933;28;20562;-70
2022/01/01 05:41:33;;;;;;;12.27;7.88;;;;;;;;;;5047646;28;20202;-72
2022/01/01 05:44:00;;;;;;;11.57;7.75;;;;;;;;;;5050367;28;20206;-71
2022/01/01 05:46:29;;;;;;;11.85;8.20;;;;;;;;;;5047863;28;20202;-71
2022/01/01 05:48:58;;;;;;;8.52;7.20;;;;;;;;;;5044928;28;20198;-71
2022/01/01 05:51:25;;;;;;;11.40;7.50;;;;;;;;;;5051512;28;20199;-71
2022/01/01 05:53:52;;;;;;;15.88;10.10;;;;;;;;;;5049452;28;20203;-72
2022/01/01 05:56:19;;;;;;;9.10;7.70;;;;;;;;;;5050986;28;20229;-72
2022/01/01 05:58:46;;;;;;;10.18;7.10;;;;;;;;;;5050595;28;20689;-72
2022/01/01 06:01:13;;;;;;;12.98;7.47;;;;;;;;;;5048770;28;20229;-71
2022/01/01 06:03:40;;;;;;;10.50;7.15;;;;;;;;;;5042035;28;20195;-72
2022/01/01 06:06:08;;;;;;;11.77;6.72;;;;;;;;;;5035204;28;20658;-71
2022/01/01 06:08:35;;;;;;;13.32;7.82;;;;;;;;;;5050062;28;20199;-72
2022/01/01 06:11:02;;;;;;;11.63;6.97;;;;;;;;;;5036400;28;20211;-72
2022/01/01 06:13:29;;;;;;;8.02;6.57;;;;;;;;;;5039111;28;20260;-71
2022/01/01 06:15:56;;;;;;;8.35;7.35;;;;;;;;;;5043462;28;20208;-72
2022/01/01 06:18:23;;;;;;;10.70;8.02;;;;;;;;;;5044184;28;20563;-71
2022/01/01 06:20:51;;;;;;;11.25;6.88;;;;;;;;;;5049167;28;20194;-71
2022/01/01 06:23:19;;;;;;;12.98;8.77;;;;;;;;;;5046364;28;20190;-70
2022/01/01 06:25:46;;;;;;;10.68;7.10;;;;;;;;;;5046251;28;20199;-71
2022/01/01 06:28:13;;;;;;;14.38;7.88;;;;;;;;;;5040492;28;20202;-71
2022/01/01 06:30:40;;;;;;;14.85;8.23;;;;;;;;;;5046223;28;20206;-70
2022/01/01 06:33:11;;;;;;;10.27;7.35;;;;;;;;;;5044281;28;20199;-72
2022/01/01 06:35:38;;;;;;;9.65;7.13;;;;;;;;;;5050688;28;20226;-71
2022/01/01 06:38:05;;;;;;;9.18;7.15;;;;;;;;;;5049842;28;20638;-71
2022/01/01 06:40:34;;;;;;;10.13;7.28;;;;;;;;;;5042468;28;20721;-73
2022/01/01 06:43:01;;;;;;;11.13;6.15;;;;;;;;;;5050216;28;20195;-73
2022/01/01 06:45:28;;;;;;;11.15;7.60;;;;;;;;;;5047119;28;20195;-71
2022/01/01 06:47:55;;;;;;;9.95;7.38;;;;;;;;;;5038718;28;20239;-72
2022/01/01 06:50:22;;;;;;;9.95;6.70;;;;;;;;;;5030693;28;20196;-72
2022/01/01 06:52:49;;;;;;;9.23;6.47;;;;;;;;;;5035690;28;20191;-72
2022/01/01 06:55:17;;;;;;;10.27;6.80;;;;;;;;;;5046522;28;20662;-71
2022/01/01 06:57:46;;;;;;;12.73;6.53;;;;;;;;;;5050464;28;20191;-72
2022/01/01 07:00:14;;;;;;;11.23;5.85;;;;;;;;;;5050347;28;20222;-72
2022/01/01 07:02:41;;;;;;;8.50;6.30;;;;;;;;;;5039399;28;20566;-72
2022/01/01 07:05:08;;;;;;;8.73;6.40;;;;;;;;;;5050269;28;20191;-73
2022/01/01 07:07:36;;;;;;;9.25;5.88;;;;;;;;;;5050370;28;20697;-73
2022/01/01 07:10:04;;;;;;;11.85;7.03;;;;;;;;;;5048849;28;20233;-72
2022/01/01 07:12:31;;;;;;;8.55;6.28;;;;;;;;;;5049949;28;20599;-72
2022/01/01 07:14:59;;;;;;;8.55;5.78;;;;;;;;;;5040695;28;20209;-73
2022/01/01 07:17:26;;;;;;;7.78;5.93;;;;;;;;;;5050524;28;20214;-71
2022/01/01 07:19:53;;;;;;;12.73;6.35;;;;;;;;;;5040201;28;20219;-72
2022/01/01 07:22:20;;;;;;;7.68;6.25;;;;;;;;;;5049621;28;20203;-72
2022/01/01 07:24:49;;;;;;;7.53;6.00;;;;;;;;;;5051905;28;20206;-72
2022/01/01 07:27:16;;;;;;;9.07;5.35;;;;;;;;;;5052267;28;20214;-74
2022/01/01 07:29:44;;;;;;;8.35;5.20;;;;;;;;;;5050883;28;20210;-73
2022/01/01 07:32:12;;;;;;;9.23;5.95;;;;;;;;;;5048971;28;20578;-73
2022/01/01 07:34:39;;;;;;;8.55;5.60;;;;;;;;;;5052950;28;20199;-74
2022/01/01 07:37:06;;;;;;;11.60;5.93;;;;;;;;;;5053966;28;20600;-72
2022/01/01 07:39:33;;;;;;;7.05;5.60;;;;;;;;;;5052878;28;20559;-72
2022/01/01 07:42:00;;;;;;;6.28;5.57;;;;;;;;;;5038140;28;20217;-73
2022/01/01 07:44:27;;;;;;;5.05;4.55;;;;;;;;;;5051056;28;20194;-72
2022/01/01 07:46:55;;;;;;;7.35;5.90;;;;;;;;;;5046506;28;20199;-72
2022/01/01 07:49:24;;;;;;;6.80;4.65;;;;;;;;;;5051663;28;20294;-73
2022/01/01 07:51:51;;;;;;;6.53;5.50;;;;;;;;;;5053580;28;20199;-74
2022/01/01 07:54:18;;;;;;;7.25;5.10;;;;;;;;;;5053448;28;20203;-73
2022/01/01 07:56:45;;;;;;;8.60;6.15;;;;;;;;;;5037509;28;20222;-73
2022/01/01 07:59:12;;;;;;;5.93;4.93;;;;;;;;;;5052724;28;20218;-73
2022/01/01 08:01:40;;;;;;;14.13;5.95;;;;;;;;;;5044982;28;20195;-73
2022/01/01 08:04:07;;;;;;;6.90;5.00;;;;;;;;;;5052621;28;20305;-73
2022/01/01 08:06:35;;;;;;;9.27;5.63;;;;;;;;;;5052902;28;20212;-74
2022/01/01 08:09:03;;;;;;;7.78;4.35;;;;;;;;;;5033142;28;20199;-73
2022/01/01 08:11:30;;;;;;;8.73;5.07;;;;;;;;;;5049069;28;20198;-74
2022/01/01 08:13:57;;;;;;;5.65;4.85;;;;;;;;;;5044882;28;20195;-72
2022/01/01 08:16:24;;;;;;;8.30;5.00;;;;;;;;;;5042970;28;20212;-73
2022/01/01 08:18:51;;;;;;;9.35;4.95;;;;;;;;;;5044130;28;20278;-72
2022/01/01 08:21:18;;;;;;;5.63;4.30;;;;;;;;;;5033162;28;20199;-73
2022/01/01 08:23:46;;;;;;;6.95;5.10;;;;;;;;;;5042682;28;20195;-72
2022/01/01 08:26:13;;;;;;;7.80;4.88;;;;;;;;;;5050106;28;20195;-73
2022/01/01 08:28:41;;;;;;;7.88;4.82;;;;;;;;;;5049070;28;20655;-72
2022/01/01 08:31:08;;;;;;;6.90;4.35;;;;;;;;;;5048589;28;20199;-73
2022/01/01 08:33:35;;;;;;;6.60;5.45;;;;;;;;;;5045060;28;20203;-72
2022/01/01 08:36:03;;;;;;;7.85;5.47;;;;;;;;;;5047843;28;20562;-71
2022/01/01 08:38:30;;;;;;;5.68;3.95;;;;;;;;;;5048408;28;20218;-73
2022/01/01 08:40:59;;;;;;;9.50;4.32;;;;;;;;;;5047126;28;20419;-73
2022/01/01 08:43:26;;;;;;;7.15;4.75;;;;;;;;;;5052122;28;20191;-73
2022/01/01 08:45:54;;;;;;;11.57;4.30;;;;;;;;;;5046607;28;20211;-72
2022/01/01 08:48:21;;;;;;;7.00;4.85;;;;;;;;;;5046148;28;20232;-72
2022/01/01 08:50:48;;;;;;;6.93;4.35;;;;;;;;;;5051696;28;20282;-73
2022/01/01 08:53:15;;;;;;;5.68;4.45;;;;;;;;;;5049889;28;20195;-72
2022/01/01 08:55:42;;;;;;;5.35;4.20;;;;;;;;;;5047867;28;20685;-73
2022/01/01 08:58:11;;;;;;;9.00;4.75;;;;;;;;;;5048193;28;20199;-73
2022/01/01 09:00:38;;;;;;;5.53;4.78;;;;;;;;;;5049912;28;20223;-72
2022/01/01 09:03:05;;;;;;;9.40;3.90;;;;;;;;;;5046822;28;20198;-72
2022/01/01 09:05:32;;;;;;;5.68;4.15;;;;;;;;;;5046218;28;20199;-72
2022/01/01 09:07:59;;;;;;;9.15;4.50;;;;;;;;;;5046494;28;20210;-72
2022/01/01 09:10:26;;;;;;;7.50;4.97;;;;;;;;;;5039125;28;20195;-73
2022/01/01 09:12:53;;;;;;;6.00;4.70;;;;;;;;;;5044933;28;20203;-74
2022/01/01 09:15:21;;;;;;;6.72;5.18;;;;;;;;;;5063323;28;20571;-74
2022/01/01 09:17:48;;;;;;;9.77;5.15;;;;;;;;;;5050813;28;20203;-72
2022/01/01 09:20:16;;;;;;;10.30;4.18;;;;;;;;;;5050903;28;20210;-73
2022/01/01 09:22:43;;;;;;;6.38;3.55;;;;;;;;;;5048426;28;20203;-73
2022/01/01 09:25:10;;;;;;;6.90;3.50;;;;;;;;;;5048182;28;20217;-73
2022/01/01 09:27:37;;;;;;;11.82;4.15;;;;;;;;;;5043866;28;20199;-73
2022/01/01 09:30:04;;;;;;;7.60;3.72;;;;;;;;;;5053470;28;20202;-73
2022/01/01 09:32:33;;;;;;;5.70;4.30;;;;;;;;;;5042714;28;20206;-72
2022/01/01 09:35:02;;;;;;;6.85;4.25;;;;;;;;;;5051502;28;20245;-73
2022/01/01 09:37:32;;;;;;;9.00;3.60;;;;;;;;;;5051521;28;20227;-73
2022/01/01 09:39:59;;;;;;;5.38;4.20;;;;;;;;;;5045297;28;20703;-71
2022/01/01 09:42:26;;;;;;;8.35;4.43;;;;;;;;;;5047170;28;20206;-73
2022/01/01 09:44:54;;;;;;;5.22;3.05;;;;;;;;;;5048612;28;20647;-73
2022/01/01 09:47:21;;;;;;;4.55;2.97;;;;;;;;;;5040974;28;20202;-73
2022/01/01 09:49:50;;;;;;;4.30;3.25;;;;;;;;;;5050549;28;20195;-73
2022/01/01 09:52:17;;;;;;;3.78;3.15;;;;;;;;;;5041990;28;20209;-73
2022/01/01 09:54:44;;;;;;;5.90;3.67;;;;;;;;;;5047495;28;20631;-73
2022/01/01 09:57:11;;;;;;;3.97;3.38;;;;;;;;;;5042643;28;20624;-73
2022/01/01 09:59:39;;;;;;;8.48;3.38;;;;;;;;;;5050673;28;20223;-72
2022/01/01 10:02:06;;;;;;;6.50;3.75;;;;;;;;;;5046960;28;20202;-72
2022/01/01 10:04:41;;;;;;;6.05;3.95;;;;;;;;;;5050354;28;20210;-71
2022/01/01 10:07:10;;;;;;;4.20;3.33;;;;;;;;;;5050421;28;20218;-71
2022/01/01 10:09:38;;;;;;;3.38;2.67;;;;;;;;;;5046827;28;20207;-72
2022/01/01 10:12:06;;;;;;;7.50;3.85;;;;;;;;;;5050283;28;20195;-71
2022/01/01 10:14:36;;;;;;;9.90;3.60;;;;;;;;;;5050583;28;20206;-72
2022/01/01 10:17:09;;;;;;;2.97;2.72;;;;;;;;;;5038026;28;20571;-73
2022/01/01 10:19:36;;;;;;;5.07;3.05;;;;;;;;;;5047317;28;20233;-71
2022/01/01 10:22:05;;;;;;;8.18;3.28;;;;;;;;;;5050468;28;20202;-72
2022/01/01 10:27:42;;;;;;;5.43;3.35;;;;;;;;;;5045081;28;20191;-71
2022/01/01 10:27:43;;;;;;;4.30;3.17;;;;;;;;;;5057935;28;20203;-73
2022/01/01 10:30:10;;;;;;;6.03;3.30;;;;;;;;;;5047389;28;20662;-72
2022/01/01 10:32:37;;;;;;;5.53;3.28;;;;;;;;;;5043351;28;20527;-72
2022/01/01 10:35:05;;;;;;;6.78;2.67;;;;;;;;;;5048651;28;20270;-71
2022/01/01 10:37:33;;;;;;;4.68;2.60;;;;;;;;;;5047157;28;20278;-72
2022/01/01 10:40:02;;;;;;;4.43;2.97;;;;;;;;;;5031462;28;20218;-72
2022/01/01 10:42:29;;;;;;;4.57;2.75;;;;;;;;;;5048176;28;20723;-71
2022/01/01 10:44:56;;;;;;;2.88;2.60;;;;;;;;;;5049378;28;20689;-72
2022/01/01 10:47:28;;;;;;;4.35;3.33;;;;;;;;;;5045454;28;20677;-72
2022/01/01 10:50:14;;;;;;;3.53;3.10;;;;;;;;;;5047736;28;20190;-72
2022/01/01 10:52:45;;;;;;;7.57;3.22;;;;;;;;;;5053179;28;20612;-72
2022/01/01 10:55:14;;;;;;;4.55;2.90;;;;;;;;;;5050770;28;20230;-75
2022/01/01 10:57:41;;;;;;;3.30;3.00;;;;;;;;;;5054290;28;20202;-73
2022/01/01 11:00:11;;;;;;;5.32;2.85;;;;;;;;;;5049985;28;20214;-72
2022/01/01 11:02:39;;;;;;;4.78;3.03;;;;;;;;;;5044426;28;20654;-72
2022/01/01 11:05:07;;;;;;;7.18;3.58;;;;;;;;;;5045341;28;20207;-72
2022/01/01 11:07:34;;;;;;;4.20;2.80;;;;;;;;;;5056379;28;20206;-72
2022/01/01 11:10:01;;;;;;;5.28;2.67;;;;;;;;;;5058277;28;20198;-72
2022/01/01 11:12:30;;;;;;;4.78;2.75;;;;;;;;;;5060708;28;20272;-73
2022/01/01 11:14:58;;;;;;;4.60;2.33;;;;;;;;;;5057016;28;20213;-73
2022/01/01 11:17:25;;;;;;;3.33;2.35;;;;;;;;;;5040161;28;20638;-72
2022/01/01 11:19:52;;;;;;;4.72;3.10;;;;;;;;;;5047006;28;20213;-73
2022/01/01 11:22:20;;;;;;;9.00;2.55;;;;;;;;;;5046446;28;20202;-72
2022/01/01 11:24:47;;;;;;;2.90;2.50;;;;;;;;;;5046701;28;20207;-74
2022/01/01 11:27:14;;;;;;;3.50;2.20;;;;;;;;;;5043925;28;20214;-72
2022/01/01 11:29:49;;;;;;;4.70;3.03;;;;;;;;;;5050173;28;20737;-74
2022/01/01 11:32:17;;;;;;;6.03;2.63;;;;;;;;;;5034486;28;20281;-72
2022/01/01 11:34:45;;;;;;;2.78;2.13;;;;;;;;;;5040765;28;20598;-72
2022/01/01 11:37:14;;;;;;;4.28;2.20;;;;;;;;;;5050398;28;20207;-73
2022/01/01 11:39:41;;;;;;;6.88;2.80;;;;;;;;;;5050171;28;20313;-72
2022/01/01 11:42:12;;;;;;;3.03;2.00;;;;;;;;;;5034171;28;20223;-72
2022/01/01 11:44:42;;;;;;;5.07;2.50;;;;;;;;;;5040537;28;20206;-72
2022/01/01 11:47:17;;;;;;;5.22;2.22;;;;;;;;;;5036107;28;20211;-73
2022/01/01 11:49:44;;;;;;;3.90;2.05;;;;;;;;;;5036911;28;20268;-72
2022/01/01 11:52:11;;;;;;;3.65;2.28;;;;;;;;;;5049933;28;20682;-72
2022/01/01 11:54:40;;;;;;;4.90;2.40;;;;;;;;;;5032106;28;20223;-72
2022/01/01 11:57:09;;;;;;;6.93;2.25;;;;;;;;;;5053933;28;20572;-71
2022/01/01 11:59:42;;;;;;;2.53;2.05;;;;;;;;;;5051208;28;20234;-73
2022/01/01 12:02:13;;;;;;;2.90;1.88;;;;;;;;;;5045772;28;20250;-72
2022/01/01 12:04:43;;;;;;;5.75;2.70;;;;;;;;;;5033496;28;20683;-73
2022/01/01 12:07:13;;;;;;;5.05;2.05;;;;;;;;;;5035843;28;20198;-73
2022/01/01 12:09:50;;;;;;;5.05;2.25;;;;;;;;;;5046789;28;20605;-72
2022/01/01 12:12:18;;;;;;;3.13;1.88;;;;;;;;;;5051353;28;20217;-72
2022/01/01 12:14:46;;;;;;;4.38;2.38;;;;;;;;;;5047175;28;20642;-72
2022/01/01 12:17:17;;;;;;;7.13;2.13;;;;;;;;;;5049319;28;20226;-74
2022/01/01 12:19:45;;;;;;;2.67;1.88;;;;;;;;;;5052709;28;20716;-72
2022/01/01 12:22:14;;;;;;;4.15;2.17;;;;;;;;;;5046507;28;20226;-72
2022/01/01 12:24:41;;;;;;;3.92;3.15;;;;;;;;;;5041135;28;20222;-73
2022/01/01 12:27:12;;;;;;;3.17;1.92;;;;;;;;;;5045405;28;20202;-73
2022/01/01 12:29:39;;;;;;;4.63;2.50;;;;;;;;;;5055547;28;20195;-72
2022/01/01 12:32:08;;;;;;;3.55;1.90;;;;;;;;;;5035359;28;20229;-73
2022/01/01 12:34:36;;;;;;;3.85;2.15;;;;;;;;;;5041125;28;20293;-72
2022/01/01 12:37:08;;;;;;;5.63;2.00;;;;;;;;;;5046737;28;20669;-73
2022/01/01 12:39:53;;;;;;;3.90;1.50;;;;;;;;;;5048145;28;20600;-73
2022/01/01 12:42:31;;;;;;;4.05;1.65;;;;;;;;;;5046271;28;20254;-72
2022/01/01 12:44:59;;;;;;;4.45;2.33;;;;;;;;;;5047344;28;20211;-72
2022/01/01 12:47:27;;;;;;;2.72;1.60;;;;;;;;;;5047197;28;20202;-72
2022/01/01 12:49:55;;;;;;;5.85;1.95;;;;;;;;;;5048521;28;20204;-73
2022/01/01 12:52:24;;;;;;;6.10;2.17;;;;;;;;;;5042147;28;20194;-72
2022/01/01 12:54:51;;;;;;;4.03;2.00;;;;;;;;;;5039928;28;20230;-72
2022/01/01 12:57:19;;;;;;;6.80;1.85;;;;;;;;;;5047750;28;20731;-72
2022/01/01 12:59:48;;;;;;;4.35;2.20;;;;;;;;;;5046437;28;20310;-73
2022/01/01 13:02:15;;;;;;;5.28;1.95;;;;;;;;;;5045738;28;20230;-73
2022/01/01 13:04:43;;;;;;;4.63;2.13;;;;;;;;;;5043753;28;20630;-73
2022/01/01 13:07:10;;;;;;;3.10;1.80;;;;;;;;;;5042892;28;20202;-73
2022/01/01 13:09:39;;;;;;;4.85;2.45;;;;;;;;;;5043359;28;20199;-71
2022/01/01 13:12:07;;;;;;;5.75;2.15;;;;;;;;;;5045211;28;20206;-72
2022/01/01 13:14:35;;;;;;;2.53;1.63;;;;;;;;;;5042938;28;20203;-73
2022/01/01 13:17:03;;;;;;;4.28;2.10;;;;;;;;;;5045283;28;20203;-73
2022/01/01 13:19:32;;;;;;;3.60;2.13;;;;;;;;;;5044255;28;20293;-74
2022/01/01 13:21:59;;;;;;;3.45;1.85;;;;;;;;;;5044508;28;20238;-73
2022/01/01 13:24:30;;;;;;;4.43;2.20;;;;;;;;;;5041291;28;20651;-74
2022/01/01 13:26:59;;;;;;;3.25;2.20;;;;;;;;;;5039037;28;20218;-73
2022/01/01 13:29:26;;;;;;;3.05;1.95;;;;;;;;;;5043916;28;20205;-72
2022/01/01 13:31:54;;;;;;;4.57;2.85;;;;;;;;;;5043433;28;20206;-72
2022/01/01 13:34:21;;;;;;;2.20;1.33;;;;;;;;;;5058879;28;20201;-74
2022/01/01 13:36:48;;;;;;;3.22;1.60;;;;;;;;;;5047495;28;20574;-72
2022/01/01 13:39:16;;;;;;;2.35;1.77;;;;;;;;;;5044716;28;20234;-76
2022/01/01 13:41:44;;;;;;;3.70;1.90;;;;;;;;;;5041078;28;20250;-74
2022/01/01 13:44:32;;;;;;;5.22;2.00;;;;;;;;;;5045913;28;20206;-74
2022/01/01 13:47:05;;;;;;;3.42;2.08;;;;;;;;;;5027938;28;20621;-74
2022/01/01 13:49:39;;;;;;;4.70;1.80;;;;;;;;;;5046643;28;20653;-74
2022/01/01 13:52:06;;;;;;;3.70;2.22;;;;;;;;;;5047694;28;20226;-74
2022/01/01 13:54:36;;;;;;;4.43;1.95;;;;;;;;;;5047869;28;20469;-74
2022/01/01 13:57:05;;;;;;;2.30;1.70;;;;;;;;;;5033712;28;20288;-74
2022/01/01 13:59:34;;;;;;;3.65;1.90;;;;;;;;;;5046596;28;20313;-74
2022/01/01 14:02:01;;;;;;;3.35;1.83;;;;;;;;;;5033884;28;20305;-75
2022/01/01 14:04:30;;;;;;;4.60;2.13;;;;;;;;;;5028337;28;20303;-74
2022/01/01 14:07:04;;;;;;;4.68;1.83;;;;;;;;;;5047451;28;20755;-75
2022/01/01 14:09:31;;;;;;;4.40;1.60;;;;;;;;;;5043564;28;20210;-75
2022/01/01 14:11:58;;;;;;;5.28;1.80;;;;;;;;;;5048419;28;20202;-74
2022/01/01 14:14:29;;;;;;;4.40;2.13;;;;;;;;;;5046684;28;20195;-75
2022/01/01 14:16:56;;;;;;;5.43;2.17;;;;;;;;;;5044345;28;20290;-75
2022/01/01 14:19:24;;;;;;;4.10;2.08;;;;;;;;;;5047227;28;20207;-73
2022/01/01 14:21:53;;;;;;;6.70;1.85;;;;;;;;;;5045177;28;20257;-74
2022/01/01 14:24:21;;;;;;;2.15;1.58;;;;;;;;;;5039920;28;20203;-74
2022/01/01 14:26:49;;;;;;;5.32;1.70;;;;;;;;;;5042647;28;20297;-74
2022/01/01 14:29:16;;;;;;;4.25;2.10;;;;;;;;;;5046167;28;20573;-74
2022/01/01 14:31:44;;;;;;;3.13;2.35;;;;;;;;;;5035397;28;20630;-74
2022/01/01 14:34:13;;;;;;;3.90;1.70;;;;;;;;;;5049471;28;20685;-74
2022/01/01 14:36:41;;;;;;;3.15;1.88;;;;;;;;;;5049023;28;20225;-74
2022/01/01 14:39:10;;;;;;;5.20;2.22;;;;;;;;;;5043938;28;20202;-75
2022/01/01 14:41:37;;;;;;;2.20;1.83;;;;;;;;;;5046540;28;20698;-74
2022/01/01 14:44:04;;;;;;;2.28;1.73;;;;;;;;;;5049758;28;20191;-74